Observations for RIMINI CIV IT-AFB, Italy (LIPR)

LIPR 181420Z 05008KT 020V080 CAVOK 17/11 Q1024  
LIPR 181350Z 05008KT 010V080 CAVOK 17/12 Q1024  
LIPR 181320Z 04008KT 020V080 CAVOK 16/11 Q1024  
LIPR 181250Z 05008KT 020V080 CAVOK 17/12 Q1025  
LIPR 181220Z 05007KT 010V080 CAVOK 17/11 Q1025  
LIPR 181150Z 03007KT 360V060 CAVOK 16/11 Q1024  
LIPR 181120Z 02007KT 340V050 CAVOK 16/11 Q1024  
LIPR 181050Z 36007KT 330V030 CAVOK 16/10 Q1024  
LIPR 181020Z 01007KT CAVOK 16/09 Q1024  
LIPR 180950Z 01007KT 330V040 CAVOK 16/10 Q1024  
LIPR 180920Z 36006KT 330V030 CAVOK 16/10 Q1024  
LIPR 180850Z 35006KT 330V040 CAVOK 16/09 Q1024  
LIPR 180820Z 35004KT 310V030 CAVOK 15/08 Q1024  
LIPR 180750Z 31004KT 250V340 CAVOK 15/08 Q1024  
LIPR 180720Z 30005KT CAVOK 14/07 Q1024  
LIPR 180650Z 29003KT 260V330 CAVOK 12/06 Q1024  
LIPR 180620Z VRB01KT CAVOK 10/06 Q1024  
LIPR 180550Z 27003KT CAVOK 08/04 Q1024  
LIPR 180520Z 19002KT CAVOK 06/03 Q1023  
LIPR 180450Z AUTO 23002KT 9999 NCD 06/03 Q1023  
LIPR 180420Z AUTO VRB02KT 9999 NCD 06/02 Q1023  
LIPR 180350Z AUTO 19003KT 9999 NCD 06/03 Q1023  
LIPR 180320Z AUTO 20002KT 9999 NCD 06/02 Q1023  
LIPR 180250Z AUTO 20003KT 180V260 9999 NCD 06/02 Q1023  
LIPR 180220Z AUTO 20003KT 9999 NCD 06/02 Q1023  
LIPR 180150Z AUTO 22004KT 9999 NCD 06/02 Q1023  
LIPR 180120Z AUTO VRB02KT 9999 NCD 06/02 Q1022  
LIPR 180050Z AUTO 22001KT 9999 NCD 07/03 Q1022  
LIPR 180020Z AUTO VRB02KT 9999 NCD 06/03 Q1022  
LIPR 172350Z AUTO 21002KT 9999 NCD 07/03 Q1022  
LIPR 172320Z AUTO 23001KT 9999 NCD 08/03 Q1022  
LIPR 172250Z AUTO 20002KT 9999 NCD 08/03 Q1022  
LIPR 172220Z AUTO 20003KT 9999 NCD 09/04 Q1022  
LIPR 172150Z AUTO 19002KT 9999 NCD 09/04 Q1021  
LIPR 172120Z AUTO 18004KT 9999 NCD 09/04 Q1021  
LIPR 172050Z 19005KT CAVOK 09/04 Q1021  
LIPR 172020Z 18003KT CAVOK 11/05 Q1021  
LIPR 171950Z 17002KT CAVOK 11/05 Q1021  
LIPR 171920Z 18003KT CAVOK 11/05 Q1020  
LIPR 171850Z 19003KT CAVOK 13/05 Q1020  
LIPR 171820Z VRB01KT CAVOK 15/05 Q1020  
LIPR 171750Z 04003KT CAVOK 17/04 Q1020  
LIPR 171720Z 24001KT CAVOK 18/03 Q1019  
LIPR 171650Z VRB01KT CAVOK 19/03 Q1020  
LIPR 171620Z VRB02KT CAVOK 18/03 Q1020  
LIPR 171550Z 06004KT 020V100 CAVOK 18/04 Q1020  
LIPR 171520Z 05004KT CAVOK 18/03 Q1019  
LIPR 171450Z 05004KT 010V090 CAVOK 18/05 Q1020  
LIPR 171420Z 06004KT 020V090 CAVOK 17/09 Q1020  
LIPR 171350Z 04006KT CAVOK 17/08 Q1020